Time;durP1;ratioP1;P1;durP2;ratioP2;P2;SDS_P1;SDS_P2;PMS_P1;PMS_P2;Temp;Humidity;BMP_temperature;BMP_pressure;BME280_temperature;BME280_humidity;BME280_pressure;Samples;Min_cycle;Max_cycle;Signal;HPM_P1;HPM_P2
2023/05/07 00:04:17;;;;;;;4.30;4.00;;;23.70;52.20;;;;;;222773;1263;22521;-55
2023/05/07 00:09:21;;;;;;;4.70;4.30;;;23.60;52.30;;;;;;222876;1264;22627;-56
2023/05/07 00:14:25;;;;;;;4.10;3.80;;;23.50;52.40;;;;;;222999;1269;22502;-56
2023/05/07 00:19:30;;;;;;;4.40;4.10;;;23.50;52.40;;;;;;222732;1266;22515;-57
2023/05/07 00:24:34;;;;;;;4.50;4.10;;;23.50;52.50;;;;;;222630;1269;22614;-56
2023/05/07 00:29:39;;;;;;;4.80;4.40;;;23.40;52.40;;;;;;222901;1247;23906;-59
2023/05/07 00:34:43;;;;;;;3.70;3.40;;;23.40;52.50;;;;;;222953;1264;26560;-57
2023/05/07 00:39:47;;;;;;;4.10;3.70;;;23.30;52.60;;;;;;222940;1266;25211;-59
2023/05/07 00:44:53;;;;;;;4.20;3.90;;;23.30;52.70;;;;;;222428;1269;22563;-54
2023/05/07 00:49:57;;;;;;;4.00;3.70;;;23.30;53.00;;;;;;222721;1254;24413;-60
2023/05/07 00:55:05;;;;;;;4.40;4.00;;;23.10;52.80;;;;;;222996;1268;25395;-56
2023/05/07 01:00:11;;;;;;;3.70;3.50;;;23.10;52.80;;;;;;222698;1263;23232;-59
2023/05/07 01:05:20;;;;;;;4.00;3.70;;;23.00;52.80;;;;;;222741;1247;24184;-54
2023/05/07 01:10:25;;;;;;;4.20;3.80;;;23.00;52.90;;;;;;223084;1266;25322;-58
2023/05/07 01:15:30;;;;;;;3.80;3.50;;;23.10;53.10;;;;;;222888;1263;24089;-55
2023/05/07 01:20:34;;;;;;;3.50;3.30;;;23.30;52.30;;;;;;223015;1255;22746;-54
2023/05/07 01:25:38;;;;;;;4.10;3.70;;;23.60;51.60;;;;;;223066;1263;23908;-54
2023/05/07 01:30:46;;;;;;;3.60;3.40;;;23.80;51.10;;;;;;223390;1265;24203;-58
2023/05/07 01:35:53;;;;;;;3.90;3.60;;;23.90;50.70;;;;;;222907;1254;25329;-56
2023/05/07 01:40:58;;;;;;;3.60;3.30;;;24.00;50.70;;;;;;222625;1264;22514;-54
2023/05/07 01:46:03;;;;;;;3.40;3.20;;;24.10;50.70;;;;;;222907;1264;22518;-57
2023/05/07 01:51:08;;;;;;;3.60;3.30;;;24.20;50.50;;;;;;223266;1264;25320;-56
2023/05/07 01:56:13;;;;;;;3.50;3.30;;;24.30;50.10;;;;;;222910;1268;22977;-57
2023/05/07 02:01:18;;;;;;;3.70;2.90;;;24.40;49.80;;;;;;222870;1267;22979;-55
2023/05/07 02:06:22;;;;;;;3.50;3.30;;;24.50;49.70;;;;;;222821;1266;23863;-57
2023/05/07 02:11:30;;;;;;;3.10;2.90;;;24.50;49.50;;;;;;222441;1261;255698;-55
2023/05/07 02:16:34;;;;;;;3.80;3.40;;;24.50;49.40;;;;;;222567;1267;23297;-54
2023/05/07 02:21:39;;;;;;;3.50;3.30;;;24.60;49.30;;;;;;223090;1267;25223;-56
2023/05/07 02:26:43;;;;;;;3.20;3.00;;;24.70;49.40;;;;;;222816;1269;22641;-55
2023/05/07 02:31:52;;;;;;;3.10;2.90;;;24.70;49.20;;;;;;222522;1266;22658;-57
2023/05/07 02:36:56;;;;;;;3.10;2.90;;;24.80;49.20;;;;;;222464;1269;22521;-55
2023/05/07 02:42:02;;;;;;;3.00;2.80;;;24.80;49.40;;;;;;222659;1267;24301;-56
2023/05/07 02:47:08;;;;;;;3.10;2.90;;;24.90;49.10;;;;;;222302;1263;22467;-56
2023/05/07 02:52:13;;;;;;;2.80;2.60;;;24.90;49.30;;;;;;222528;1264;22514;-56
2023/05/07 02:57:17;;;;;;;3.10;2.90;;;24.80;49.00;;;;;;222789;1266;24193;-59
2023/05/07 03:02:22;;;;;;;3.20;2.90;;;24.70;49.20;;;;;;222538;1269;22527;-58
2023/05/07 03:07:26;;;;;;;2.90;2.70;;;24.60;50.00;;;;;;222599;1257;24289;-55
2023/05/07 03:12:31;;;;;;;3.10;2.90;;;24.60;49.60;;;;;;222535;1269;22517;-61
2023/05/07 03:17:35;;;;;;;2.90;2.70;;;24.50;49.60;;;;;;222912;1267;23998;-58
2023/05/07 03:22:40;;;;;;;3.20;3.00;;;24.50;49.70;;;;;;222640;1266;24224;-57
2023/05/07 03:27:44;;;;;;;3.00;2.80;;;24.30;49.80;;;;;;223004;1258;24442;-56
2023/05/07 03:32:50;;;;;;;3.10;2.90;;;24.20;50.00;;;;;;222516;1248;23918;-55
2023/05/07 03:37:54;;;;;;;2.80;2.60;;;24.20;50.20;;;;;;222439;1269;22794;-55
2023/05/07 03:43:00;;;;;;;3.00;2.80;;;24.10;50.20;;;;;;222582;1264;22589;-60
2023/05/07 03:48:05;;;;;;;3.10;2.90;;;24.00;50.60;;;;;;222835;1269;24176;-60
2023/05/07 03:53:10;;;;;;;3.30;3.10;;;24.00;50.40;;;;;;222345;1267;26507;-56
2023/05/07 03:58:15;;;;;;;2.90;2.70;;;23.90;50.40;;;;;;222433;1269;22610;-57
2023/05/07 04:03:20;;;;;;;2.50;2.40;;;23.90;50.50;;;;;;223109;1266;22504;-60
2023/05/07 04:08:25;;;;;;;3.00;2.80;;;23.80;50.60;;;;;;222855;1267;24348;-55
2023/05/07 04:13:30;;;;;;;3.10;2.90;;;23.70;50.80;;;;;;223003;1267;25481;-62
2023/05/07 04:18:36;;;;;;;3.10;2.80;;;23.70;50.80;;;;;;222468;1257;24396;-56
2023/05/07 04:23:40;;;;;;;3.10;2.90;;;23.60;50.90;;;;;;222809;1264;22532;-55
2023/05/07 04:28:46;;;;;;;3.20;3.00;;;23.60;51.40;;;;;;222769;1268;22511;-55
2023/05/07 04:33:51;;;;;;;3.10;2.90;;;23.60;51.40;;;;;;222836;1258;22518;-56
2023/05/07 04:38:56;;;;;;;3.00;2.80;;;23.50;50.90;;;;;;222918;1258;22597;-55
2023/05/07 04:44:00;;;;;;;3.00;2.80;;;23.50;50.90;;;;;;222918;1264;22536;-59
2023/05/07 04:49:05;;;;;;;2.80;2.60;;;23.40;51.30;;;;;;223030;1253;24062;-58
2023/05/07 04:54:10;;;;;;;3.00;2.80;;;23.40;51.20;;;;;;222655;1257;22694;-56
2023/05/07 04:59:14;;;;;;;3.20;3.00;;;23.40;51.10;;;;;;223066;1267;22514;-55
2023/05/07 05:04:19;;;;;;;2.80;2.60;;;23.40;51.30;;;;;;222651;1255;22725;-56
2023/05/07 05:09:23;;;;;;;2.80;2.60;;;23.30;51.10;;;;;;222980;1264;25450;-55
2023/05/07 05:14:28;;;;;;;2.80;2.60;;;23.30;51.90;;;;;;222868;1269;22516;-59
2023/05/07 05:19:32;;;;;;;3.00;2.80;;;23.30;51.60;;;;;;222526;1269;22635;-58
2023/05/07 05:24:37;;;;;;;3.50;3.30;;;23.20;51.30;;;;;;222495;1268;22586;-59
2023/05/07 05:29:42;;;;;;;2.70;2.50;;;23.10;51.70;;;;;;222616;1247;24032;-61
2023/05/07 05:34:48;;;;;;;3.30;2.70;;;23.30;50.90;;;;;;222581;1263;25223;-59
2023/05/07 05:39:54;;;;;;;3.00;2.80;;;23.70;50.10;;;;;;222378;1269;22560;-61
2023/05/07 05:44:58;;;;;;;2.80;2.70;;;23.90;49.50;;;;;;222657;1264;25523;-59
2023/05/07 05:50:04;;;;;;;2.30;2.20;;;24.00;49.30;;;;;;222615;1257;24295;-56
2023/05/07 05:55:09;;;;;;;2.50;2.30;;;24.20;49.10;;;;;;223016;1269;22511;-54
2023/05/07 06:00:14;;;;;;;2.90;2.70;;;24.30;48.90;;;;;;223311;1269;25357;-56
2023/05/07 06:05:21;;;;;;;3.00;2.80;;;24.30;48.80;;;;;;222991;1263;24176;-57
2023/05/07 06:10:27;;;;;;;2.90;2.40;;;24.40;48.60;;;;;;222798;1269;22515;-57
2023/05/07 06:15:32;;;;;;;2.70;2.50;;;24.50;48.30;;;;;;222554;1269;22481;-60
2023/05/07 06:20:40;;;;;;;2.50;2.40;;;24.60;48.10;;;;;;222801;1257;24363;-59
2023/05/07 06:25:51;;;;;;;3.10;2.90;;;24.60;47.90;;;;;;222886;1258;25405;-56
2023/05/07 06:31:20;;;;;;;2.70;2.50;;;24.70;47.80;;;;;;222647;1254;22512;-55
2023/05/07 06:36:40;;;;;;;2.20;2.10;;;24.70;47.90;;;;;;222857;1259;23910;-56
2023/05/07 06:41:51;;;;;;;2.40;2.10;;;24.70;48.00;;;;;;223176;1263;22602;-54
2023/05/07 06:47:02;;;;;;;2.90;2.70;;;24.60;48.20;;;;;;222812;1263;22536;-56
2023/05/07 06:52:06;;;;;;;3.00;2.80;;;24.60;48.30;;;;;;222678;1268;22511;-58
2023/05/07 06:57:11;;;;;;;2.90;2.70;;;24.50;48.90;;;;;;222747;1264;22549;-57
2023/05/07 07:02:15;;;;;;;2.50;2.40;;;24.50;48.50;;;;;;223077;1264;22529;-58
2023/05/07 07:07:21;;;;;;;2.80;2.60;;;24.50;48.40;;;;;;222671;1265;24169;-59
2023/05/07 07:12:28;;;;;;;2.60;2.40;;;24.60;48.30;;;;;;223345;1257;22543;-56
2023/05/07 07:17:33;;;;;;;2.70;2.50;;;24.70;48.10;;;;;;222862;1266;24179;-55
2023/05/07 07:22:38;;;;;;;2.60;2.50;;;24.70;48.10;;;;;;222782;1256;24648;-56
2023/05/07 07:27:43;;;;;;;2.60;2.50;;;24.60;48.30;;;;;;222892;1264;25230;-58
2023/05/07 07:32:48;;;;;;;2.50;2.40;;;24.50;48.50;;;;;;223086;1263;22515;-59
2023/05/07 07:37:52;;;;;;;2.60;2.50;;;24.50;48.60;;;;;;222541;1265;22523;-56
2023/05/07 07:42:59;;;;;;;2.60;2.50;;;24.50;49.00;;;;;;223033;1253;23909;-54
2023/05/07 07:48:05;;;;;;;2.80;2.60;;;24.40;48.60;;;;;;222825;1266;23914;-55
2023/05/07 07:53:10;;;;;;;2.90;2.70;;;24.40;48.60;;;;;;223014;1264;22518;-57
2023/05/07 07:58:15;;;;;;;2.80;2.60;;;24.30;48.80;;;;;;223161;1263;22515;-53
2023/05/07 08:03:20;;;;;;;2.80;2.60;;;24.20;48.90;;;;;;223028;1263;22633;-54
2023/05/07 08:08:26;;;;;;;3.30;3.00;;;24.20;49.00;;;;;;222836;1262;23373;-56
2023/05/07 08:13:31;;;;;;;2.80;2.60;;;24.10;48.90;;;;;;222640;1268;22731;-59
2023/05/07 08:18:36;;;;;;;3.40;3.20;;;24.10;49.00;;;;;;222828;1263;22501;-57
2023/05/07 08:23:40;;;;;;;2.70;2.50;;;24.00;49.00;;;;;;222562;1269;25380;-59
2023/05/07 08:28:46;;;;;;;2.90;2.70;;;23.90;49.30;;;;;;222654;1268;22542;-55
2023/05/07 08:33:50;;;;;;;2.80;2.60;;;23.90;49.30;;;;;;222619;1263;22663;-56
2023/05/07 08:38:54;;;;;;;2.80;2.70;;;23.90;49.40;;;;;;222662;1268;22655;-59
2023/05/07 08:44:00;;;;;;;2.90;2.70;;;23.80;49.40;;;;;;222556;1261;22560;-56
2023/05/07 08:49:04;;;;;;;3.20;3.00;;;23.80;49.10;;;;;;222725;1266;23722;-55
2023/05/07 08:54:11;;;;;;;3.20;3.00;;;23.70;49.40;;;;;;222856;1263;22504;-54
2023/05/07 08:59:15;;;;;;;3.00;2.80;;;23.70;49.50;;;;;;222732;1262;24367;-55
2023/05/07 09:04:20;;;;;;;3.30;3.00;;;23.70;49.60;;;;;;222690;1263;24186;-56
2023/05/07 09:09:25;;;;;;;3.50;3.20;;;23.60;49.60;;;;;;223086;1263;22637;-56
2023/05/07 09:14:32;;;;;;;3.50;3.20;;;23.60;49.60;;;;;;222749;1263;22517;-54
2023/05/07 09:19:36;;;;;;;3.80;3.50;;;23.60;49.50;;;;;;222654;1268;22528;-57
2023/05/07 09:24:50;;;;;;;3.70;3.40;;;23.60;49.60;;;;;;222721;1263;25459;-56
2023/05/07 09:29:57;;;;;;;3.40;3.10;;;23.50;49.50;;;;;;222966;1268;22647;-56
2023/05/07 09:35:02;;;;;;;3.60;3.30;;;23.50;49.60;;;;;;223276;1269;22526;-53
2023/05/07 09:40:09;;;;;;;3.40;3.20;;;23.50;49.80;;;;;;222754;1256;24245;-55
2023/05/07 09:45:13;;;;;;;3.70;3.40;;;23.40;49.80;;;;;;222832;1269;24186;-58
2023/05/07 09:50:19;;;;;;;3.70;3.40;;;23.40;49.70;;;;;;222849;1265;24177;-57
2023/05/07 09:55:24;;;;;;;3.70;3.40;;;23.40;49.80;;;;;;222847;1269;24042;-55
2023/05/07 10:00:29;;;;;;;3.60;3.30;;;23.40;49.70;;;;;;222556;1266;22661;-57
2023/05/07 10:05:37;;;;;;;3.20;3.00;;;23.40;49.80;;;;;;222967;1264;24228;-55
2023/05/07 10:10:43;;;;;;;3.60;3.40;;;23.40;49.80;;;;;;222690;1263;24771;-54
2023/05/07 10:15:50;;;;;;;3.20;3.00;;;23.30;49.80;;;;;;222704;1266;24243;-59
2023/05/07 10:21:08;;;;;;;3.70;3.40;;;23.40;49.80;;;;;;222922;1263;22568;-55
2023/05/07 10:26:14;;;;;;;3.60;3.40;;;23.30;49.40;;;;;;222911;1263;24258;-57
2023/05/07 10:31:37;;;;;;;3.60;3.40;;;23.30;49.80;;;;;;222678;1256;22517;-57
2023/05/07 10:36:42;;;;;;;3.30;3.10;;;23.30;49.90;;;;;;223047;1257;24172;-56
2023/05/07 10:41:48;;;;;;;3.40;3.20;;;23.30;49.90;;;;;;223345;1253;22631;-53
2023/05/07 10:47:18;;;;;;;3.50;3.20;;;23.30;50.20;;;;;;223056;1263;22518;-55
2023/05/07 10:52:26;;;;;;;3.80;3.50;;;23.30;50.20;;;;;;222958;1268;22528;-58
2023/05/07 10:57:36;;;;;;;4.50;3.60;;;23.50;49.50;;;;;;222779;1256;22668;-57
2023/05/07 11:03:01;;;;;;;3.50;3.30;;;23.70;48.80;;;;;;222734;1269;24027;-62
2023/05/07 11:08:14;;;;;;;3.70;3.50;;;23.90;48.30;;;;;;222795;1266;22504;-56
2023/05/07 11:13:50;;;;;;;3.50;3.30;;;24.10;48.10;;;;;;222080;1269;22565;-55
2023/05/07 11:19:14;;;;;;;3.30;3.00;;;24.20;47.90;;;;;;222312;1265;22509;-57
2023/05/07 11:24:23;;;;;;;2.90;2.70;;;24.30;47.60;;;;;;222430;1265;22563;-56
2023/05/07 11:29:34;;;;;;;3.40;3.20;;;24.40;47.40;;;;;;222685;1263;22515;-56
2023/05/07 11:34:44;;;;;;;3.60;3.30;;;24.50;47.20;;;;;;222304;1266;22527;-56
2023/05/07 11:39:58;;;;;;;3.10;2.80;;;24.60;47.10;;;;;;222661;1262;25581;-55
2023/05/07 11:45:02;;;;;;;3.20;2.90;;;24.70;47.00;;;;;;222437;1268;25262;-55
2023/05/07 11:50:07;;;;;;;3.30;3.00;;;24.80;46.90;;;;;;222471;1263;22624;-60
2023/05/07 11:55:12;;;;;;;3.30;3.10;;;24.90;46.80;;;;;;222601;1265;24228;-55
2023/05/07 12:00:16;;;;;;;3.30;3.10;;;24.90;46.80;;;;;;222455;1263;25371;-55
2023/05/07 12:05:20;;;;;;;2.80;2.60;;;24.90;47.10;;;;;;222564;1265;22530;-55
2023/05/07 12:10:25;;;;;;;3.50;3.20;;;24.70;47.50;;;;;;222469;1266;22531;-58
2023/05/07 12:15:29;;;;;;;3.20;3.00;;;24.70;47.30;;;;;;222729;1263;25319;-55
2023/05/07 12:20:35;;;;;;;3.00;2.80;;;24.60;47.50;;;;;;222519;1259;22561;-54
2023/05/07 12:25:46;;;;;;;3.30;3.10;;;24.50;47.90;;;;;;222478;1263;25478;-55
2023/05/07 12:30:52;;;;;;;3.40;3.20;;;24.50;47.80;;;;;;222810;1264;22633;-55
2023/05/07 12:35:56;;;;;;;2.70;2.50;;;24.40;48.10;;;;;;222621;1269;25389;-60
2023/05/07 12:41:00;;;;;;;3.00;2.80;;;24.50;47.70;;;;;;222120;1247;22657;-55
2023/05/07 12:46:07;;;;;;;3.20;3.00;;;24.40;47.80;;;;;;222292;1266;25268;-58
2023/05/07 12:51:13;;;;;;;3.20;3.00;;;24.30;48.00;;;;;;222142;1263;23890;-59
2023/05/07 12:56:17;;;;;;;2.70;2.50;;;24.20;48.00;;;;;;222522;1269;25908;-52
2023/05/07 13:01:23;;;;;;;2.70;2.60;;;24.20;48.10;;;;;;222469;1268;22548;-55
2023/05/07 13:06:28;;;;;;;2.90;2.70;;;24.20;48.10;;;;;;222360;1262;22649;-55
2023/05/07 13:11:32;;;;;;;3.00;2.80;;;24.10;48.00;;;;;;222309;1266;22504;-55
2023/05/07 13:16:36;;;;;;;3.30;3.10;;;24.00;48.20;;;;;;222232;1269;24193;-59
2023/05/07 13:21:40;;;;;;;3.00;2.80;;;24.00;48.20;;;;;;222704;1269;25331;-58
2023/05/07 13:26:45;;;;;;;3.50;3.30;;;24.00;48.30;;;;;;222463;1259;25339;-55
2023/05/07 13:31:49;;;;;;;3.10;2.90;;;23.90;48.40;;;;;;222434;1260;24396;-56
2023/05/07 13:36:53;;;;;;;3.10;2.90;;;23.90;48.40;;;;;;222693;1266;22508;-55
2023/05/07 13:41:57;;;;;;;3.20;3.00;;;23.80;48.40;;;;;;222365;1264;24251;-56
2023/05/07 13:47:01;;;;;;;3.20;3.00;;;23.80;48.50;;;;;;222949;1269;25255;-57
2023/05/07 13:52:06;;;;;;;3.00;2.80;;;23.70;48.60;;;;;;222548;1265;22991;-59
2023/05/07 13:57:10;;;;;;;3.00;2.80;;;23.70;48.60;;;;;;222312;1262;22530;-58
2023/05/07 14:02:14;;;;;;;3.20;3.00;;;23.70;48.60;;;;;;222779;1254;24184;-55
2023/05/07 14:07:19;;;;;;;2.80;2.60;;;23.60;48.70;;;;;;222984;1260;22538;-56
2023/05/07 14:12:25;;;;;;;2.60;2.40;;;23.60;48.80;;;;;;222341;1266;164592;-57
2023/05/07 14:17:29;;;;;;;2.90;2.70;;;23.60;48.80;;;;;;222895;1268;22524;-57
2023/05/07 14:22:33;;;;;;;3.00;2.80;;;23.60;49.20;;;;;;222952;1266;22512;-56
2023/05/07 14:27:37;;;;;;;3.00;2.80;;;23.50;48.80;;;;;;222539;1257;22518;-54
2023/05/07 14:32:42;;;;;;;3.50;3.20;;;23.50;48.80;;;;;;222479;1266;22560;-55
2023/05/07 14:37:46;;;;;;;3.00;2.80;;;23.50;48.80;;;;;;222583;1266;25294;-59
2023/05/07 14:42:50;;;;;;;3.40;3.20;;;23.40;48.80;;;;;;222799;1263;22629;-61
2023/05/07 14:47:55;;;;;;;3.40;3.20;;;23.40;48.70;;;;;;222848;1263;24377;-58
2023/05/07 14:52:59;;;;;;;3.80;3.50;;;23.40;48.90;;;;;;222792;1263;24346;-56
2023/05/07 14:58:03;;;;;;;3.40;3.20;;;23.40;48.80;;;;;;222817;1266;22544;-55
2023/05/07 15:03:10;;;;;;;3.30;3.10;;;23.40;49.10;;;;;;222325;1266;24322;-56
2023/05/07 15:08:17;;;;;;;3.30;3.10;;;23.40;48.70;;;;;;223226;1266;22507;-54
2023/05/07 15:13:21;;;;;;;3.30;3.10;;;23.40;48.80;;;;;;223016;1257;25365;-56
2023/05/07 15:18:25;;;;;;;3.70;3.30;;;23.50;48.60;;;;;;222876;1263;25219;-54
2023/05/07 15:23:30;;;;;;;3.50;3.30;;;23.40;48.70;;;;;;222874;1268;22633;-52
2023/05/07 15:28:35;;;;;;;3.10;2.90;;;23.40;49.10;;;;;;223029;1263;22622;-57
2023/05/07 15:33:40;;;;;;;3.70;3.40;;;23.40;48.70;;;;;;222403;1269;24332;-55
2023/05/07 15:38:44;;;;;;;3.70;3.40;;;23.30;48.70;;;;;;223008;1269;22507;-55
2023/05/07 15:43:51;;;;;;;3.70;3.50;;;23.30;49.00;;;;;;222653;1263;22725;-59
2023/05/07 15:48:56;;;;;;;3.40;3.20;;;23.30;49.50;;;;;;222658;1266;22535;-55
2023/05/07 15:54:00;;;;;;;3.80;3.50;;;23.30;49.30;;;;;;222826;1268;22667;-55
2023/05/07 15:59:04;;;;;;;3.40;3.20;;;23.40;48.40;;;;;;223050;1261;22508;-56
2023/05/07 16:04:09;;;;;;;3.50;3.30;;;23.70;47.80;;;;;;222990;1263;22721;-56
2023/05/07 16:09:14;;;;;;;3.40;3.10;;;23.90;47.80;;;;;;223106;1263;24308;-56
2023/05/07 16:14:18;;;;;;;3.50;3.20;;;24.00;47.20;;;;;;222634;1263;24267;-58
2023/05/07 16:19:22;;;;;;;2.90;2.70;;;24.10;47.10;;;;;;222897;1254;22523;-57
2023/05/07 16:24:28;;;;;;;3.40;3.20;;;24.30;46.80;;;;;;222606;1263;23876;-57
2023/05/07 16:29:32;;;;;;;3.20;3.00;;;24.30;46.60;;;;;;222895;1254;23914;-57
2023/05/07 16:34:37;;;;;;;3.40;3.20;;;24.40;46.40;;;;;;222548;1265;22559;-54
2023/05/07 16:39:41;;;;;;;3.10;2.90;;;24.50;46.30;;;;;;223004;1266;22626;-58
2023/05/07 16:44:46;;;;;;;3.40;3.20;;;24.60;46.20;;;;;;223200;1268;24330;-56
2023/05/07 16:49:51;;;;;;;2.90;2.70;;;24.70;46.20;;;;;;222722;1269;25316;-58
2023/05/07 16:55:00;;;;;;;4.50;3.00;;;24.70;46.10;;;;;;222575;1267;25278;-56
2023/05/07 17:00:06;;;;;;;3.10;2.90;;;24.80;46.10;;;;;;222851;1266;25360;-55
2023/05/07 17:05:10;;;;;;;4.10;2.90;;;24.90;46.30;;;;;;222842;1266;25241;-62
2023/05/07 17:10:15;;;;;;;5.70;2.80;;;24.80;45.80;;;;;;222820;1269;23889;-55
2023/05/07 17:15:20;;;;;;;3.70;3.20;;;24.90;46.00;;;;;;222581;1257;22532;-55
2023/05/07 17:20:26;;;;;;;3.50;3.00;;;24.80;46.40;;;;;;222554;1269;24341;-57
2023/05/07 17:25:31;;;;;;;2.60;2.40;;;24.70;46.70;;;;;;222596;1259;22979;-58
2023/05/07 17:30:35;;;;;;;6.00;2.90;;;24.50;47.00;;;;;;221568;1267;22615;-57
2023/05/07 17:35:40;;;;;;;6.60;3.40;;;24.60;47.20;;;;;;221200;1269;24312;-57
2023/05/07 17:40:44;;;;;;;6.40;3.00;;;24.70;48.40;;;;;;221555;1274;22530;-54
2023/05/07 17:45:49;;;;;;;4.30;3.10;;;24.60;50.90;;;;;;221533;1260;24187;-58
2023/05/07 17:51:00;;;;;;;4.10;2.80;;;24.50;49.30;;;;;;221786;1272;24246;-62
2023/05/07 17:56:04;;;;;;;4.50;3.20;;;24.50;50.20;;;;;;222711;1266;24254;-61
2023/05/07 18:01:09;;;;;;;4.30;3.60;;;24.40;50.40;;;;;;222790;1259;25340;-61
2023/05/07 18:06:17;;;;;;;4.40;2.80;;;24.40;50.60;;;;;;222864;1263;22590;-62
2023/05/07 18:11:22;;;;;;;4.90;2.80;;;24.30;50.70;;;;;;222730;1265;24365;-58
2023/05/07 18:16:26;;;;;;;3.30;2.70;;;24.30;50.80;;;;;;222698;1263;24199;-60
2023/05/07 18:21:31;;;;;;;3.10;2.70;;;24.30;50.90;;;;;;222561;1266;22592;-59
2023/05/07 18:26:37;;;;;;;3.60;2.80;;;24.30;51.00;;;;;;222716;1266;24379;-59
2023/05/07 18:31:43;;;;;;;6.80;3.30;;;24.30;51.00;;;;;;222826;1265;25316;-62
2023/05/07 18:36:47;;;;;;;3.70;2.90;;;24.20;51.80;;;;;;222680;1269;23911;-58
2023/05/07 18:41:54;;;;;;;6.90;3.00;;;24.30;51.50;;;;;;223019;1268;25449;-58
2023/05/07 18:46:59;;;;;;;5.20;2.90;;;24.20;51.60;;;;;;222864;1263;25388;-60
2023/05/07 18:52:05;;;;;;;5.30;3.40;;;24.10;51.60;;;;;;222734;1267;24196;-59
2023/05/07 18:57:10;;;;;;;7.40;3.40;;;24.10;51.90;;;;;;222741;1266;22509;-59
2023/05/07 19:02:15;;;;;;;6.50;3.40;;;24.00;51.90;;;;;;222500;1255;22559;-60
2023/05/07 19:07:21;;;;;;;13.20;3.40;;;23.90;51.90;;;;;;222309;1267;22514;-62
2023/05/07 19:12:27;;;;;;;10.30;3.20;;;23.90;52.70;;;;;;222363;1256;24299;-62
2023/05/07 19:17:34;;;;;;;3.40;3.00;;;24.00;52.50;;;;;;222470;1264;24218;-63
2023/05/07 19:22:39;;;;;;;3.10;2.90;;;24.00;51.90;;;;;;222259;1266;24180;-63
2023/05/07 19:27:45;;;;;;;4.70;3.60;;;24.00;52.10;;;;;;222342;1265;25277;-63
2023/05/07 19:32:50;;;;;;;7.20;3.80;;;24.00;52.10;;;;;;222382;1263;22523;-63
2023/05/07 19:37:59;;;;;;;4.20;3.40;;;24.00;51.70;;;;;;222398;1263;22525;-64
2023/05/07 19:43:05;;;;;;;3.40;2.70;;;23.90;51.90;;;;;;222461;1266;22531;-62
2023/05/07 19:48:13;;;;;;;3.50;3.20;;;23.90;51.70;;;;;;222321;1264;24324;-62
2023/05/07 19:53:19;;;;;;;9.70;3.40;;;23.90;51.70;;;;;;222402;1267;24246;-62
2023/05/07 19:58:23;;;;;;;9.60;3.70;;;23.80;52.00;;;;;;222510;1266;25316;-60
2023/05/07 20:03:32;;;;;;;6.10;3.30;;;23.80;52.40;;;;;;225374;1264;25259;-59
2023/05/07 20:08:36;;;;;;;6.80;3.10;;;23.80;51.60;;;;;;221958;1263;24208;-59
2023/05/07 20:13:41;;;;;;;5.30;3.30;;;23.90;52.80;;;;;;222705;1266;22515;-58
2023/05/07 20:18:46;;;;;;;3.90;3.10;;;23.70;53.00;;;;;;222366;1263;22519;-59
2023/05/07 20:23:51;;;;;;;9.60;3.10;;;23.70;52.70;;;;;;222325;1262;22638;-60
2023/05/07 20:28:56;;;;;;;3.40;3.10;;;23.60;53.00;;;;;;221886;1247;22517;-62
2023/05/07 20:34:02;;;;;;;3.80;3.40;;;23.60;53.10;;;;;;222339;1267;22512;-60
2023/05/07 20:39:08;;;;;;;6.40;3.20;;;23.50;52.90;;;;;;222192;1263;22626;-60
2023/05/07 20:44:13;;;;;;;8.70;3.00;;;23.50;53.30;;;;;;222345;1254;24310;-60
2023/05/07 20:49:20;;;;;;;7.20;2.80;;;23.50;53.20;;;;;;222904;1263;22612;-61
2023/05/07 20:54:26;;;;;;;4.50;3.40;;;23.40;53.40;;;;;;222352;1267;22643;-61
2023/05/07 20:59:35;;;;;;;3.60;3.20;;;23.40;52.90;;;;;;222204;1269;22562;-60
2023/05/07 21:04:39;;;;;;;6.50;3.20;;;23.50;53.50;;;;;;222523;1267;22635;-60
2023/05/07 21:09:44;;;;;;;8.30;3.30;;;23.50;56.80;;;;;;222531;1262;25323;-60
2023/05/07 21:14:49;;;;;;;7.60;4.00;;;23.40;56.00;;;;;;225743;1267;22527;-60
2023/05/07 21:19:53;;;;;;;8.70;3.70;;;23.60;60.00;;;;;;222266;1266;25715;-60
2023/05/07 21:24:59;;;;;;;6.10;3.50;;;23.70;59.40;;;;;;222482;1269;22531;-61
2023/05/07 21:30:05;;;;;;;8.60;3.80;;;23.50;59.40;;;;;;222246;1265;23010;-60
2023/05/07 21:35:10;;;;;;;4.80;3.30;;;23.60;59.30;;;;;;222323;1257;25574;-61
2023/05/07 21:40:15;;;;;;;6.50;4.00;;;23.60;59.20;;;;;;222587;1269;22512;-59
2023/05/07 21:45:19;;;;;;;5.40;3.30;;;23.50;58.90;;;;;;222007;1269;22514;-65
2023/05/07 21:50:23;;;;;;;4.90;3.50;;;23.50;59.20;;;;;;222504;1269;25361;-64
2023/05/07 21:55:28;;;;;;;4.70;3.60;;;23.50;58.60;;;;;;222668;1269;22511;-61
2023/05/07 22:00:32;;;;;;;5.10;3.70;;;23.50;59.00;;;;;;222603;1267;22524;-60
2023/05/07 22:05:36;;;;;;;5.50;2.90;;;23.50;58.70;;;;;;222588;1269;24193;-60
2023/05/07 22:10:40;;;;;;;4.60;3.40;;;23.40;58.20;;;;;;222460;1269;22617;-59
2023/05/07 22:15:44;;;;;;;5.10;3.10;;;23.40;58.20;;;;;;222415;1263;22522;-63
2023/05/07 22:21:00;;;;;;;6.80;3.70;;;23.30;58.10;;;;;;222569;1264;24219;-59
2023/05/07 22:26:13;;;;;;;6.80;3.40;;;23.20;57.90;;;;;;222521;1263;25265;-62
2023/05/07 22:31:17;;;;;;;5.70;3.10;;;23.20;58.00;;;;;;222916;1269;22617;-65
2023/05/07 22:36:21;;;;;;;4.40;3.50;;;23.10;58.50;;;;;;222615;1266;22532;-61
2023/05/07 22:41:25;;;;;;;6.50;3.10;;;23.10;58.60;;;;;;222799;1253;23882;-60
2023/05/07 22:46:29;;;;;;;4.90;3.20;;;23.10;58.30;;;;;;222975;1259;22521;-60
2023/05/07 22:51:35;;;;;;;4.10;3.10;;;23.10;58.10;;;;;;223071;1267;24180;-60
2023/05/07 22:56:39;;;;;;;4.30;3.20;;;23.00;57.90;;;;;;222820;1263;24234;-59
2023/05/07 23:01:45;;;;;;;3.50;3.00;;;23.00;58.20;;;;;;222771;1264;23302;-61
2023/05/07 23:06:49;;;;;;;4.90;3.40;;;23.00;57.90;;;;;;222901;1264;22645;-61
2023/05/07 23:11:54;;;;;;;4.00;3.00;;;22.90;57.90;;;;;;222513;1255;24218;-61
2023/05/07 23:16:58;;;;;;;5.00;3.10;;;22.90;57.70;;;;;;222553;1255;22785;-60
2023/05/07 23:22:02;;;;;;;3.10;2.70;;;22.80;57.50;;;;;;223694;1264;22539;-64
2023/05/07 23:27:07;;;;;;;2.90;2.70;;;22.80;57.70;;;;;;222661;1268;24442;-61
2023/05/07 23:32:12;;;;;;;5.70;3.40;;;22.80;57.60;;;;;;222620;1257;24190;-59
2023/05/07 23:37:16;;;;;;;4.00;3.00;;;22.80;57.70;;;;;;222598;1267;22516;-61
2023/05/07 23:42:20;;;;;;;3.00;2.80;;;22.80;57.60;;;;;;222667;1268;23172;-66
2023/05/07 23:47:25;;;;;;;3.60;3.20;;;23.00;57.60;;;;;;222605;1267;23885;-64
2023/05/07 23:52:29;;;;;;;3.60;3.00;;;23.30;56.80;;;;;;222664;1264;22517;-61
2023/05/07 23:57:33;;;;;;;3.00;2.80;;;23.60;56.40;;;;;;222374;1257;22527;-61
